createdAt,value
2019-03-21T00:02:24.269Z,1.00
2019-03-21T00:04:57.047Z,1.00
2019-03-21T00:07:30.034Z,0.80
2019-03-21T00:10:02.955Z,0.70
2019-03-21T00:12:35.832Z,0.70
2019-03-21T00:15:08.959Z,0.40
2019-03-21T00:17:42.364Z,0.70
2019-03-21T00:20:15.501Z,0.70
2019-03-21T00:22:48.396Z,0.70
2019-03-21T00:25:23.143Z,0.70
2019-03-21T00:27:56.171Z,0.80
2019-03-21T00:30:29.149Z,0.80
2019-03-21T00:33:01.906Z,0.70
2019-03-21T00:35:34.943Z,0.70
2019-03-21T00:38:07.766Z,0.70
2019-03-21T00:40:40.849Z,0.70
2019-03-21T00:43:13.906Z,0.60
2019-03-21T00:45:46.941Z,0.50
2019-03-21T00:48:22.364Z,0.50
2019-03-21T00:50:55.544Z,0.60
2019-03-21T00:53:28.494Z,0.40
2019-03-21T00:56:01.326Z,0.60
2019-03-21T00:58:34.235Z,0.60
2019-03-21T01:01:06.940Z,0.70
2019-03-21T01:03:39.929Z,0.50
2019-03-21T01:06:13.588Z,0.40
2019-03-21T01:08:46.544Z,0.30
2019-03-21T01:11:21.048Z,0.50
2019-03-21T01:13:53.855Z,0.50
2019-03-21T01:16:26.854Z,0.50
2019-03-21T01:19:00.086Z,0.50
2019-03-21T01:21:33.076Z,0.30
2019-03-21T01:24:06.488Z,0.30
2019-03-21T01:26:39.510Z,0.40
2019-03-21T01:29:12.587Z,0.40
2019-03-21T01:31:45.368Z,0.20
2019-03-21T01:34:18.707Z,0.20
2019-03-21T01:36:53.164Z,0.10
2019-03-21T01:39:26.644Z,0.40
2019-03-21T01:42:00.025Z,0.30
2019-03-21T01:44:41.115Z,0.40
2019-03-21T01:47:07.604Z,0.40
2019-03-21T01:49:40.563Z,0.30
2019-03-21T01:52:13.584Z,0.20
2019-03-21T01:54:46.433Z,0.00
2019-03-21T01:57:19.304Z,0.00
2019-03-21T01:59:52.124Z,0.00
2019-03-21T02:02:25.293Z,0.10
2019-03-21T02:04:58.526Z,0.30
2019-03-21T02:07:31.525Z,0.20
2019-03-21T02:10:06.364Z,0.10
2019-03-21T02:12:39.324Z,0.30
2019-03-21T02:15:12.224Z,0.10
2019-03-21T02:17:45.077Z,0.30
2019-03-21T02:20:18.244Z,0.40
2019-03-21T02:22:51.164Z,0.30
2019-03-21T02:25:24.046Z,0.30
2019-03-21T02:27:57.450Z,0.30
2019-03-21T02:30:30.445Z,0.40
2019-03-21T02:33:03.278Z,0.20
2019-03-21T02:35:36.165Z,0.30
2019-03-21T02:38:09.446Z,0.40
2019-03-21T02:40:42.424Z,0.30
2019-03-21T02:43:15.628Z,0.40
2019-03-21T02:45:48.814Z,0.40
2019-03-21T02:48:21.708Z,0.40
2019-03-21T02:50:56.286Z,-0.10
2019-03-21T02:53:29.366Z,0.10
2019-03-21T02:56:05.085Z,0.30
2019-03-21T02:58:37.965Z,-0.10
2019-03-21T03:01:11.148Z,0.10
2019-03-21T03:03:43.919Z,0.30
2019-03-21T03:06:19.524Z,0.40
2019-03-21T03:08:52.411Z,0.40
2019-03-21T03:11:25.914Z,0.50
2019-03-21T03:13:58.789Z,0.40
2019-03-21T03:16:31.965Z,0.40
2019-03-21T03:19:04.961Z,0.00
2019-03-21T03:21:37.987Z,-0.30
2019-03-21T03:24:12.886Z,-0.10
2019-03-21T03:26:45.725Z,0.00
2019-03-21T03:29:18.690Z,-0.10
2019-03-21T03:31:51.665Z,-0.10
2019-03-21T03:34:26.445Z,-0.10
2019-03-21T03:36:59.292Z,0.00
2019-03-21T03:39:32.446Z,-0.10
2019-03-21T03:42:05.352Z,0.00
2019-03-21T03:44:38.345Z,0.00
2019-03-21T03:47:11.811Z,0.20
2019-03-21T03:49:44.726Z,0.20
2019-03-21T03:52:17.625Z,0.20
2019-03-21T03:54:50.914Z,0.00
2019-03-21T03:57:23.846Z,0.00
2019-03-21T03:59:57.045Z,0.10
2019-03-21T04:02:30.046Z,0.10
2019-03-21T04:05:03.188Z,0.10
2019-03-21T04:07:36.118Z,0.00
2019-03-21T04:10:09.035Z,0.00
2019-03-21T04:12:42.003Z,0.00
2019-03-21T04:15:15.145Z,-0.10
2019-03-21T04:17:48.244Z,-0.10
2019-03-21T04:20:21.364Z,-0.40
2019-03-21T04:22:54.167Z,-0.10
2019-03-21T04:25:28.644Z,0.10
2019-03-21T04:28:01.567Z,0.10
2019-03-21T04:30:34.553Z,0.10
2019-03-21T04:33:07.489Z,0.10
2019-03-21T04:35:40.465Z,0.00
2019-03-21T04:38:13.345Z,-0.10
2019-03-21T04:40:46.145Z,-0.20
2019-03-21T04:43:19.145Z,-0.10
2019-03-21T04:46:02.623Z,0.00
2019-03-21T04:48:28.081Z,0.10
2019-03-21T04:51:01.169Z,0.00
2019-03-21T04:53:34.044Z,0.10
2019-03-21T04:56:07.072Z,0.10
2019-03-21T04:58:40.042Z,0.10
2019-03-21T05:01:12.964Z,0.00
2019-03-21T05:03:45.893Z,0.00
2019-03-21T05:06:18.906Z,0.00
2019-03-21T05:08:52.233Z,0.00
2019-03-21T05:11:28.145Z,0.00
2019-03-21T05:14:01.223Z,0.10
2019-03-21T05:16:34.104Z,0.00
2019-03-21T05:19:07.124Z,0.10
2019-03-21T05:21:40.003Z,0.00
2019-03-21T05:24:14.873Z,0.10
2019-03-21T05:26:48.313Z,0.20
2019-03-21T05:29:21.224Z,0.20
2019-03-21T05:31:54.644Z,0.00
2019-03-21T05:34:27.805Z,-0.20
2019-03-21T05:37:00.726Z,0.00
2019-03-21T05:39:33.685Z,0.30
2019-03-21T05:42:06.440Z,0.30
2019-03-21T05:44:40.044Z,0.30
2019-03-21T05:47:14.244Z,0.30
2019-03-21T05:49:47.185Z,0.40
2019-03-21T05:52:20.192Z,0.30
2019-03-21T05:54:55.445Z,0.20
2019-03-21T05:57:28.512Z,0.30
2019-03-21T06:00:01.510Z,0.30
2019-03-21T06:02:36.564Z,0.20
2019-03-21T06:05:09.733Z,0.30
2019-03-21T06:09:24.504Z,0.20
2019-03-21T06:11:57.556Z,0.30
2019-03-21T06:14:32.260Z,0.20
2019-03-21T06:17:05.142Z,0.10
2019-03-21T06:19:39.924Z,0.00
2019-03-21T06:22:12.914Z,0.10
2019-03-21T06:24:45.704Z,0.10
2019-03-21T06:27:18.814Z,0.20
2019-03-21T06:29:52.745Z,0.40
2019-03-21T06:32:25.844Z,0.60
2019-03-21T06:35:02.698Z,0.70
2019-03-21T06:37:44.604Z,0.80
2019-03-21T06:43:52.824Z,0.40
2019-03-21T06:46:25.769Z,0.60
2019-03-21T06:49:00.924Z,0.70
2019-03-21T06:51:36.324Z,0.80
2019-03-21T06:54:22.544Z,0.90
2019-03-21T06:57:14.145Z,1.00
2019-03-21T07:00:00.398Z,1.00
2019-03-21T07:02:32.264Z,1.10
2019-03-21T07:05:05.286Z,1.20
2019-03-21T07:07:38.844Z,1.30
2019-03-21T07:10:17.036Z,1.30
2019-03-21T07:12:52.526Z,1.40
2019-03-21T07:15:26.085Z,1.40
2019-03-21T07:17:59.004Z,1.40
2019-03-21T07:20:38.195Z,1.50
2019-03-21T07:23:11.365Z,1.50
2019-03-21T07:25:44.387Z,1.50
2019-03-21T07:31:30.884Z,1.70
2019-03-21T07:34:03.784Z,1.80
2019-03-21T07:36:36.784Z,1.70
2019-03-21T07:39:10.525Z,1.90
2019-03-21T07:41:44.311Z,2.00
2019-03-21T07:44:17.393Z,2.00
2019-03-21T07:46:51.369Z,2.10
2019-03-21T07:49:24.568Z,2.10
2019-03-21T07:51:57.485Z,2.30
2019-03-21T07:54:30.771Z,2.50
2019-03-21T07:57:11.225Z,2.40
2019-03-21T08:00:06.745Z,2.40
2019-03-21T08:02:39.625Z,2.40
2019-03-21T08:05:12.905Z,2.70
2019-03-21T08:07:45.905Z,2.70
2019-03-21T08:10:18.826Z,2.80
2019-03-21T08:12:51.784Z,2.90
2019-03-21T08:15:25.125Z,3.00
2019-03-21T08:18:00.364Z,3.10
2019-03-21T08:20:33.854Z,3.20
2019-03-21T08:23:11.764Z,3.40
2019-03-21T08:25:44.624Z,3.70
2019-03-21T08:28:19.124Z,3.90
2019-03-21T08:30:52.184Z,4.30
2019-03-21T08:33:25.144Z,4.60
2019-03-21T08:35:58.527Z,4.90
2019-03-21T08:38:33.065Z,5.20
2019-03-21T08:41:07.225Z,5.30
2019-03-21T08:43:40.252Z,5.50
2019-03-21T08:46:13.572Z,5.90
2019-03-21T08:48:48.024Z,5.90
2019-03-21T08:51:20.946Z,6.30
2019-03-21T08:53:54.025Z,6.20
2019-03-21T08:56:27.332Z,6.30
2019-03-21T08:59:00.312Z,6.10
2019-03-21T09:01:33.826Z,6.00
2019-03-21T09:04:07.193Z,6.10
2019-03-21T09:06:39.993Z,6.40
2019-03-21T09:09:13.875Z,6.50
2019-03-21T09:11:47.194Z,7.10
2019-03-21T09:14:20.005Z,7.30
2019-03-21T09:16:52.867Z,7.60
2019-03-21T09:19:25.845Z,7.80
2019-03-21T09:21:58.844Z,7.90
2019-03-21T09:24:50.612Z,7.70
2019-03-21T09:27:23.907Z,7.30
2019-03-21T09:29:56.865Z,7.80
2019-03-21T09:32:29.728Z,7.90
2019-03-21T09:35:02.687Z,7.60
2019-03-21T09:37:35.574Z,8.00
2019-03-21T09:40:08.713Z,8.70
2019-03-21T09:42:41.805Z,8.80
2019-03-21T09:45:16.792Z,8.70
2019-03-21T09:47:49.526Z,8.90
2019-03-21T09:50:22.805Z,9.10
2019-03-21T09:52:55.847Z,9.50
2019-03-21T09:55:28.805Z,8.90
2019-03-21T09:58:01.835Z,8.90
2019-03-21T10:00:35.133Z,9.70
2019-03-21T10:03:08.121Z,10.00
2019-03-21T10:05:41.076Z,9.40
2019-03-21T10:08:13.945Z,9.30
2019-03-21T10:10:47.384Z,9.90
2019-03-21T10:13:34.388Z,10.00
2019-03-21T10:16:07.593Z,10.00
2019-03-21T10:18:40.552Z,9.60
2019-03-21T10:21:13.724Z,9.20
2019-03-21T10:23:48.085Z,9.00
2019-03-21T10:26:21.685Z,9.00
2019-03-21T10:28:55.044Z,9.00
2019-03-21T10:31:29.905Z,9.40
2019-03-21T10:34:03.072Z,9.20
2019-03-21T10:36:36.485Z,9.00
2019-03-21T10:39:10.905Z,9.70
2019-03-21T10:41:47.505Z,9.60
2019-03-21T10:44:20.725Z,9.90
2019-03-21T10:46:56.045Z,10.70
2019-03-21T10:49:36.123Z,10.20
2019-03-21T10:52:11.985Z,9.70
2019-03-21T10:54:44.693Z,10.20
2019-03-21T10:57:19.052Z,10.90
2019-03-21T10:59:52.232Z,11.20
2019-03-21T11:02:25.364Z,11.30
2019-03-21T11:04:58.233Z,11.20
2019-03-21T11:07:31.765Z,10.90
2019-03-21T11:10:07.345Z,10.30
2019-03-21T11:12:47.645Z,10.60
2019-03-21T11:15:20.712Z,10.60
2019-03-21T11:17:54.507Z,10.80
2019-03-21T11:56:27.686Z,11.10
2019-03-21T11:59:00.724Z,11.10
2019-03-21T12:01:35.864Z,11.00
2019-03-21T12:04:08.644Z,11.20
2019-03-21T12:06:43.844Z,11.90
2019-03-21T12:09:17.183Z,10.70
2019-03-21T12:11:50.353Z,11.00
2019-03-21T12:14:23.372Z,10.70
2019-03-21T12:16:56.284Z,11.20
2019-03-21T12:19:29.126Z,11.80
2019-03-21T12:22:02.070Z,11.50
2019-03-21T12:24:35.368Z,10.90
2019-03-21T12:27:08.444Z,11.50
2019-03-21T12:29:41.886Z,11.70
2019-03-21T12:32:14.887Z,12.20
2019-03-21T12:34:48.472Z,11.70
2019-03-21T12:37:21.444Z,12.00
2019-03-21T12:39:54.493Z,12.00
2019-03-21T12:42:27.604Z,12.30
2019-03-21T12:45:00.525Z,12.60
2019-03-21T12:47:33.524Z,12.70
2019-03-21T12:50:06.387Z,12.40
2019-03-21T12:52:41.580Z,12.30
2019-03-21T12:55:16.085Z,12.60
2019-03-21T12:57:49.008Z,12.60
2019-03-21T13:00:24.038Z,12.40
2019-03-21T13:02:57.024Z,12.50
2019-03-21T13:05:30.728Z,12.40
2019-03-21T13:08:03.553Z,12.70
2019-03-21T13:10:37.264Z,12.80
2019-03-21T13:13:10.465Z,13.10
2019-03-21T13:15:43.364Z,12.60
2019-03-21T13:18:16.726Z,12.50
2019-03-21T13:20:49.704Z,12.50
2019-03-21T13:23:24.728Z,12.80
2019-03-21T13:25:57.945Z,12.70
2019-03-21T13:28:30.825Z,12.80
2019-03-21T13:31:03.766Z,12.40
2019-03-21T13:33:39.125Z,12.60
2019-03-21T13:36:12.404Z,12.30
2019-03-21T13:38:45.524Z,12.50
2019-03-21T13:41:18.584Z,12.40
2019-03-21T13:43:51.645Z,12.30
2019-03-21T13:46:25.205Z,12.10
2019-03-21T13:48:58.124Z,12.00
2019-03-21T13:51:31.604Z,12.50
2019-03-21T13:54:04.506Z,12.20
2019-03-21T13:56:38.507Z,12.50
2019-03-21T13:59:11.445Z,12.40
2019-03-21T14:01:44.746Z,12.60
2019-03-21T14:04:18.184Z,12.20
2019-03-21T14:06:51.085Z,12.20
2019-03-21T14:09:26.040Z,12.50
2019-03-21T14:11:58.975Z,12.70
2019-03-21T14:14:32.245Z,13.10
2019-03-21T14:17:05.245Z,13.10
2019-03-21T14:19:37.965Z,13.20
2019-03-21T14:22:11.165Z,13.30
2019-03-21T14:24:45.625Z,12.80
2019-03-21T14:27:18.965Z,12.60
2019-03-21T14:30:00.838Z,12.30
2019-03-21T14:32:27.168Z,12.00
2019-03-21T14:35:00.172Z,12.20
2019-03-21T14:37:33.985Z,12.70
2019-03-21T14:40:07.148Z,12.30
2019-03-21T14:42:40.222Z,12.20
2019-03-21T14:45:13.307Z,12.50
2019-03-21T14:47:48.787Z,12.20
2019-03-21T14:50:22.018Z,11.90
2019-03-21T14:52:54.960Z,12.10
2019-03-21T14:55:28.324Z,11.90
2019-03-21T14:58:01.935Z,11.90
2019-03-21T15:00:35.165Z,12.20
2019-03-21T15:03:08.185Z,11.80
2019-03-21T15:05:41.046Z,11.20
2019-03-21T15:08:15.813Z,11.40
2019-03-21T15:10:49.172Z,11.80
2019-03-21T15:13:25.105Z,11.70
2019-03-21T15:15:58.345Z,11.60
2019-03-21T15:18:33.564Z,11.60
2019-03-21T15:21:07.125Z,11.50
2019-03-21T15:23:41.165Z,11.60
2019-03-21T15:26:14.335Z,11.60
2019-03-21T15:28:47.124Z,11.60
2019-03-21T15:31:19.913Z,10.90
2019-03-21T15:33:52.881Z,11.30
2019-03-21T15:36:25.917Z,11.20
2019-03-21T15:39:01.045Z,11.00
2019-03-21T15:41:33.873Z,11.20
2019-03-21T15:44:06.884Z,11.20
2019-03-21T15:46:39.944Z,11.00
2019-03-21T15:49:12.887Z,10.90
2019-03-21T15:51:46.135Z,10.60
2019-03-21T15:54:19.026Z,10.60
2019-03-21T15:56:52.566Z,10.60
2019-03-21T15:59:25.547Z,10.20
2019-03-21T16:01:58.926Z,10.30
2019-03-21T16:04:32.848Z,10.40
2019-03-21T16:07:06.747Z,10.00
2019-03-21T16:09:42.015Z,10.00
2019-03-21T16:12:14.906Z,10.10
2019-03-21T16:14:49.326Z,9.90
2019-03-21T16:17:24.526Z,9.80
2019-03-21T16:19:58.146Z,9.80
2019-03-21T16:22:33.386Z,9.50
2019-03-21T16:25:10.305Z,9.60
2019-03-21T16:27:51.278Z,9.30
2019-03-21T16:30:30.660Z,9.30
2019-03-21T16:33:07.164Z,9.50
